createdAt,value
2019-01-06T00:27:25.432Z,100.00
2019-01-06T00:30:11.834Z,100.00
2019-01-06T00:32:50.265Z,100.00
2019-01-06T00:35:36.934Z,100.00
2019-01-06T01:24:06.890Z,100.00
2019-01-06T01:40:40.248Z,100.00
2019-01-06T01:43:27.054Z,100.00
2019-01-06T01:49:13.144Z,100.00
2019-01-06T01:51:59.668Z,100.00
2019-01-06T01:54:46.199Z,100.00
2019-01-06T01:57:32.683Z,100.00
2019-01-06T02:00:19.356Z,100.00
2019-01-06T02:03:04.306Z,100.00
2019-01-06T02:05:51.317Z,100.00
2019-01-06T02:08:30.096Z,100.00
2019-01-06T02:25:39.292Z,100.00
2019-01-06T02:37:07.797Z,100.00
2019-01-06T03:11:13.502Z,100.00
2019-01-06T03:16:56.270Z,100.00
2019-01-06T03:28:50.043Z,100.00
2019-01-06T03:39:39.211Z,100.00
2019-01-06T03:42:25.697Z,100.00
2019-01-06T03:48:01.360Z,100.00
2019-01-06T04:10:29.534Z,100.00
2019-01-06T04:19:00.234Z,100.00
2019-01-06T04:40:12.479Z,100.00
2019-01-06T05:10:54.335Z,100.00
2019-01-06T05:13:44.079Z,100.00
2019-01-06T05:30:54.769Z,100.00
2019-01-06T05:45:40.705Z,100.00
2019-01-06T05:57:28.750Z,100.00
2019-01-06T06:00:15.227Z,100.00
2019-01-06T06:03:01.775Z,100.00
2019-01-06T06:05:49.186Z,100.00
2019-01-06T06:08:36.130Z,100.00
2019-01-06T06:14:23.931Z,100.00
2019-01-06T06:26:03.340Z,100.00
2019-01-06T06:28:50.051Z,100.00
2019-01-06T06:35:06.823Z,100.00
2019-01-06T06:38:38.719Z,100.00
2019-01-06T06:53:51.747Z,100.00
2019-01-06T06:57:02.943Z,100.00
2019-01-06T06:59:49.327Z,100.00
2019-01-06T07:29:39.190Z,100.00
2019-01-06T07:40:43.397Z,100.00
2019-01-06T07:43:30.241Z,100.00
2019-01-06T07:46:17.522Z,100.00
2019-01-06T07:49:29.605Z,100.00
2019-01-06T07:55:11.822Z,100.00
2019-01-06T07:57:59.161Z,100.00
2019-01-06T08:01:11.893Z,100.00
2019-01-06T08:03:58.551Z,100.00
2019-01-06T08:06:45.459Z,100.00
2019-01-06T08:09:32.170Z,100.00
2019-01-06T08:12:18.806Z,100.00
2019-01-06T08:15:25.134Z,100.00
2019-01-06T08:18:11.826Z,100.00
2019-01-06T08:21:11.179Z,98.69
2019-01-06T08:23:57.644Z,97.32
2019-01-06T08:26:44.291Z,97.63
2019-01-06T08:29:30.987Z,96.88
2019-01-06T08:32:17.281Z,97.04
2019-01-06T08:35:03.899Z,94.86
2019-01-06T08:37:50.452Z,93.74
2019-01-06T08:40:37.024Z,94.37
2019-01-06T08:43:23.377Z,95.55
2019-01-06T08:46:09.694Z,96.97
2019-01-06T08:48:56.152Z,97.49
2019-01-06T08:51:42.877Z,98.50
2019-01-06T08:54:49.002Z,99.61
2019-01-06T08:57:35.777Z,97.04
2019-01-06T09:00:13.580Z,97.25
2019-01-06T09:03:00.104Z,97.09
2019-01-06T09:05:46.565Z,95.74
2019-01-06T09:08:33.246Z,96.36
2019-01-06T09:11:19.617Z,94.47
2019-01-06T09:14:06.061Z,93.10
2019-01-06T09:16:52.617Z,91.76
2019-01-06T09:19:39.038Z,93.66
2019-01-06T09:22:25.760Z,93.12
2019-01-06T09:25:12.302Z,90.35
2019-01-06T09:27:58.847Z,89.56
2019-01-06T09:30:45.301Z,91.02
2019-01-06T09:33:27.693Z,84.90
2019-01-06T09:36:14.172Z,84.25
2019-01-06T09:39:00.758Z,85.92
2019-01-06T09:41:47.233Z,84.10
2019-01-06T09:44:33.624Z,81.36
2019-01-06T09:47:20.412Z,80.18
2019-01-06T09:50:06.806Z,83.40
2019-01-06T09:52:44.494Z,82.65
2019-01-06T09:55:30.856Z,84.88
2019-01-06T09:58:13.162Z,82.13
2019-01-06T10:00:59.630Z,81.91
2019-01-06T10:03:46.324Z,79.00
2019-01-06T10:06:32.869Z,81.50
2019-01-06T10:09:19.498Z,77.96
2019-01-06T10:12:05.761Z,79.61
2019-01-06T10:14:48.497Z,79.27
2019-01-06T10:17:35.047Z,81.07
2019-01-06T10:20:21.716Z,79.81
2019-01-06T10:23:08.153Z,81.06
2019-01-06T10:25:54.582Z,79.87
2019-01-06T10:28:40.956Z,81.48
2019-01-06T10:31:27.484Z,80.80
2019-01-06T10:34:13.847Z,80.54
2019-01-06T10:37:00.557Z,83.25
2019-01-06T10:39:37.721Z,79.87
2019-01-06T10:42:24.153Z,80.87
2019-01-06T10:45:10.523Z,77.80
2019-01-06T10:47:57.088Z,76.91
2019-01-06T10:50:43.549Z,79.22
2019-01-06T10:53:30.036Z,80.74
2019-01-06T10:56:16.498Z,77.08
2019-01-06T10:59:04.900Z,76.92
2019-01-06T11:01:51.307Z,75.58
2019-01-06T11:04:37.747Z,74.71
2019-01-06T11:07:24.240Z,75.92
2019-01-06T11:10:11.039Z,75.12
2019-01-06T11:12:57.811Z,74.66
2019-01-06T11:15:44.588Z,74.76
2019-01-06T11:18:31.072Z,73.41
2019-01-06T11:21:17.497Z,74.22
2019-01-06T11:24:03.956Z,76.09
2019-01-06T11:26:50.398Z,76.23
2019-01-06T11:29:36.849Z,75.49
2019-01-06T11:32:23.405Z,76.37
2019-01-06T11:35:09.767Z,78.09
2019-01-06T11:37:56.466Z,78.57
2019-01-06T11:40:42.829Z,79.13
2019-01-06T11:43:49.050Z,79.13
2019-01-06T11:46:35.428Z,80.76
2019-01-06T11:49:23.245Z,81.17
2019-01-06T11:52:10.274Z,79.25
2019-01-06T11:54:56.855Z,78.95
2019-01-06T11:57:43.565Z,78.29
2019-01-06T12:00:30.005Z,79.16
2019-01-06T12:03:06.866Z,79.89
2019-01-06T12:05:53.389Z,77.87
2019-01-06T12:08:31.997Z,77.99
2019-01-06T12:11:18.604Z,79.04
2019-01-06T12:13:56.312Z,78.00
2019-01-06T12:16:42.762Z,78.24
2019-01-06T12:19:22.534Z,79.46
2019-01-06T12:22:08.960Z,77.49
2019-01-06T12:24:55.289Z,77.75
2019-01-06T12:27:41.729Z,77.33
2019-01-06T12:30:28.407Z,77.67
2019-01-06T12:33:14.758Z,78.43
2019-01-06T12:36:01.404Z,77.83
2019-01-06T12:38:48.096Z,79.04
2019-01-06T12:41:34.451Z,78.81
2019-01-06T12:44:21.493Z,78.24
2019-01-06T12:47:07.850Z,77.25
2019-01-06T12:49:54.187Z,78.21
2019-01-06T12:52:40.860Z,80.47
2019-01-06T12:55:27.674Z,77.96
2019-01-06T12:58:14.023Z,74.03
2019-01-06T13:01:00.527Z,73.79
2019-01-06T13:03:46.881Z,75.73
2019-01-06T13:06:33.405Z,76.24
2019-01-06T13:09:19.768Z,78.86
2019-01-06T13:12:06.186Z,76.77
2019-01-06T13:14:47.419Z,76.66
2019-01-06T13:17:33.847Z,77.32
2019-01-06T13:20:20.111Z,77.26
2019-01-06T13:23:06.502Z,77.47
2019-01-06T13:25:53.080Z,77.83
2019-01-06T13:28:39.550Z,78.43
2019-01-06T13:31:26.189Z,79.23
2019-01-06T13:34:12.641Z,79.24
2019-01-06T13:36:59.234Z,81.01
2019-01-06T13:39:45.549Z,79.04
2019-01-06T13:42:32.337Z,80.59
2019-01-06T13:45:18.646Z,78.17
2019-01-06T13:48:05.007Z,79.14
2019-01-06T13:50:51.449Z,79.66
2019-01-06T13:53:37.804Z,77.00
2019-01-06T13:56:24.626Z,78.30
2019-01-06T13:59:10.985Z,78.89
2019-01-06T14:01:57.318Z,78.49
2019-01-06T14:04:43.813Z,78.45
2019-01-06T14:07:30.340Z,79.02
2019-01-06T14:10:16.822Z,79.51
2019-01-06T14:12:55.264Z,79.12
2019-01-06T14:16:01.359Z,79.84
2019-01-06T14:18:47.933Z,78.84
2019-01-06T14:21:34.290Z,80.07
2019-01-06T14:24:17.312Z,79.89
2019-01-06T14:27:03.744Z,80.25
2019-01-06T14:29:50.220Z,81.77
2019-01-06T14:32:36.863Z,80.92
2019-01-06T14:35:23.696Z,79.59
2019-01-06T14:38:10.287Z,80.36
2019-01-06T14:40:56.983Z,81.26
2019-01-06T14:43:43.444Z,80.69
2019-01-06T14:46:29.767Z,82.78
2019-01-06T14:49:16.238Z,81.57
2019-01-06T14:52:02.942Z,82.72
2019-01-06T14:54:49.345Z,82.69
2019-01-06T14:57:35.768Z,82.37
2019-01-06T15:03:30.452Z,84.36
2019-01-06T15:06:07.691Z,85.20
2019-01-06T15:08:54.426Z,85.02
2019-01-06T15:11:40.813Z,86.70
2019-01-06T15:14:28.120Z,85.71
2019-01-06T15:17:14.774Z,86.11
2019-01-06T15:20:01.333Z,86.83
2019-01-06T15:22:48.305Z,86.72
2019-01-06T15:25:34.858Z,86.91
2019-01-06T15:28:21.663Z,87.01
2019-01-06T15:31:07.981Z,88.14
2019-01-06T15:33:54.263Z,87.62
2019-01-06T15:36:40.750Z,88.75
2019-01-06T15:39:27.379Z,88.82
2019-01-06T15:42:13.815Z,88.62
2019-01-06T15:45:00.264Z,88.86
2019-01-06T15:50:33.571Z,88.39
2019-01-06T15:53:20.077Z,89.02
2019-01-06T15:56:07.616Z,89.78
2019-01-06T15:58:53.973Z,88.47
2019-01-06T16:01:34.606Z,88.66
2019-01-06T16:04:20.967Z,88.36
2019-01-06T16:07:07.386Z,88.34
2019-01-06T16:09:53.882Z,88.39
2019-01-06T16:12:40.443Z,88.12
2019-01-06T16:15:18.146Z,88.42
2019-01-06T16:18:05.171Z,90.31
2019-01-06T16:20:51.870Z,89.18
2019-01-06T16:23:38.733Z,89.57
2019-01-06T16:26:25.931Z,89.17
2019-01-06T16:29:12.857Z,89.67
2019-01-06T16:31:59.223Z,89.56
2019-01-06T16:34:45.564Z,89.75
2019-01-06T16:37:31.944Z,90.46
2019-01-06T16:43:13.683Z,89.01
2019-01-06T16:46:00.054Z,90.52
2019-01-06T16:48:46.552Z,90.08
2019-01-06T16:51:32.941Z,88.98
2019-01-06T16:54:19.462Z,90.16
2019-01-06T16:57:05.934Z,91.40
2019-01-06T16:59:52.477Z,91.14
2019-01-06T17:02:38.769Z,90.76
2019-01-06T17:05:25.536Z,90.67
2019-01-06T17:08:11.988Z,91.56
2019-01-06T17:10:58.507Z,95.56
2019-01-06T17:13:45.169Z,93.62
2019-01-06T17:16:31.639Z,93.13
2019-01-06T17:19:17.977Z,93.74
2019-01-06T17:22:04.406Z,92.33
2019-01-06T17:24:50.776Z,92.79
2019-01-06T17:27:37.173Z,92.09
2019-01-06T17:30:24.201Z,92.54
2019-01-06T17:33:02.621Z,92.57
2019-01-06T17:35:48.971Z,92.35
2019-01-06T17:38:35.371Z,92.22
2019-01-06T17:41:22.022Z,92.09
2019-01-06T17:44:08.518Z,91.99
2019-01-06T17:47:14.504Z,92.53
2019-01-06T17:50:01.334Z,93.93
2019-01-06T17:52:47.824Z,96.17
2019-01-06T17:55:34.478Z,91.44
2019-01-06T17:58:12.189Z,89.98
2019-01-06T18:00:59.007Z,91.29
2019-01-06T18:03:45.398Z,89.56
2019-01-06T18:06:31.950Z,89.51
2019-01-06T18:09:19.014Z,89.92
2019-01-06T18:12:05.721Z,90.13
2019-01-06T18:14:52.125Z,86.61
2019-01-06T18:17:38.746Z,88.13
2019-01-06T18:20:25.186Z,88.21
2019-01-06T18:23:11.649Z,87.85
2019-01-06T18:25:58.117Z,87.47
2019-01-06T18:28:40.430Z,88.79
2019-01-06T18:31:27.022Z,91.65
2019-01-06T18:34:33.090Z,88.23
2019-01-06T18:37:20.089Z,87.13
2019-01-06T18:40:06.673Z,88.10
2019-01-06T18:42:43.094Z,90.43
2019-01-06T18:45:29.613Z,90.08
2019-01-06T18:48:16.100Z,90.00
2019-01-06T18:51:02.820Z,87.46
2019-01-06T18:53:49.247Z,87.53
2019-01-06T18:56:35.703Z,89.16
2019-01-06T18:59:22.068Z,88.90
2019-01-06T19:02:08.614Z,88.26
2019-01-06T19:04:55.663Z,89.01
2019-01-06T19:07:42.087Z,89.60
2019-01-06T19:10:28.755Z,89.29
2019-01-06T19:13:15.526Z,89.95
2019-01-06T19:16:01.910Z,89.32
2019-01-06T19:18:48.944Z,88.83
2019-01-06T19:21:35.932Z,89.00
2019-01-06T19:24:22.444Z,88.55
2019-01-06T19:27:08.981Z,89.90
2019-01-06T19:29:55.538Z,89.42
2019-01-06T19:32:42.294Z,90.01
2019-01-06T19:35:29.120Z,89.61
2019-01-06T19:38:15.835Z,90.29
2019-01-06T19:41:02.707Z,89.66
2019-01-06T19:43:44.235Z,90.62
2019-01-06T19:46:30.819Z,94.06
2019-01-06T19:49:17.281Z,95.81
2019-01-06T19:52:03.974Z,93.98
2019-01-06T19:54:50.334Z,91.94
2019-01-06T19:57:36.749Z,91.73
2019-01-06T20:00:23.739Z,91.23
2019-01-06T20:03:10.174Z,90.86
2019-01-06T20:05:56.541Z,90.19
2019-01-06T20:08:42.960Z,89.96
2019-01-06T20:11:29.623Z,91.28
2019-01-06T20:14:16.353Z,91.45
2019-01-06T20:17:02.611Z,90.82
2019-01-06T20:19:49.211Z,91.92
2019-01-06T20:22:35.908Z,91.80
2019-01-06T20:25:22.586Z,91.28
2019-01-06T20:28:08.946Z,91.66
2019-01-06T20:30:55.500Z,91.72
2019-01-06T20:33:54.888Z,91.28
2019-01-06T20:36:41.413Z,91.26
2019-01-06T20:39:28.616Z,91.06
2019-01-06T20:42:15.074Z,91.36
2019-01-06T20:45:20.984Z,91.73
2019-01-06T20:48:07.428Z,93.12
2019-01-06T20:50:53.780Z,94.62
2019-01-06T20:53:40.278Z,96.13
2019-01-06T20:56:22.573Z,95.71
2019-01-06T20:59:09.121Z,95.92
2019-01-06T21:01:55.491Z,98.28
2019-01-06T21:04:42.084Z,99.02
2019-01-06T21:07:29.137Z,96.58
2019-01-06T21:10:16.019Z,95.43
2019-01-06T21:13:02.285Z,95.73
2019-01-06T21:15:48.827Z,96.16
2019-01-06T21:18:35.338Z,96.37
2019-01-06T21:21:21.988Z,96.37
2019-01-06T21:24:17.073Z,96.62
2019-01-06T21:27:03.686Z,96.28
2019-01-06T21:29:49.758Z,96.46
2019-01-06T21:32:55.942Z,96.22
2019-01-06T21:35:42.805Z,95.67
2019-01-06T21:38:29.355Z,96.15
2019-01-06T21:41:15.717Z,97.16
2019-01-06T21:44:02.147Z,97.08
2019-01-06T21:46:48.793Z,97.14
2019-01-06T21:49:35.292Z,97.72
2019-01-06T21:52:21.877Z,97.46
2019-01-06T21:55:08.581Z,97.90
2019-01-06T21:57:54.952Z,98.30
2019-01-06T22:00:41.560Z,97.40
2019-01-06T22:03:28.090Z,98.29
2019-01-06T22:06:14.598Z,99.33
2019-01-06T22:09:20.581Z,98.41
2019-01-06T22:12:06.984Z,98.94
2019-01-06T22:14:53.635Z,99.89
2019-01-06T22:17:40.047Z,100.00
2019-01-06T22:20:26.503Z,100.00
2019-01-06T22:23:12.928Z,100.00
2019-01-06T22:25:59.277Z,100.00
2019-01-06T22:28:45.592Z,100.00
2019-01-06T22:31:29.744Z,100.00
2019-01-06T22:34:16.175Z,100.00
2019-01-06T22:37:12.262Z,100.00
2019-01-06T22:39:58.864Z,100.00
2019-01-06T22:42:45.126Z,100.00
2019-01-06T22:45:31.832Z,100.00
2019-01-06T22:48:18.093Z,100.00
2019-01-06T22:50:57.467Z,100.00
2019-01-06T22:53:43.820Z,100.00
2019-01-06T22:56:30.320Z,100.00
2019-01-06T22:59:16.699Z,100.00
2019-01-06T23:02:03.213Z,100.00
2019-01-06T23:04:49.547Z,100.00
2019-01-06T23:07:36.045Z,100.00
2019-01-06T23:10:22.867Z,100.00
2019-01-06T23:13:09.313Z,100.00
2019-01-06T23:15:56.035Z,100.00
2019-01-06T23:18:42.610Z,100.00
2019-01-06T23:21:27.112Z,100.00
2019-01-06T23:24:14.261Z,100.00
2019-01-06T23:27:00.725Z,100.00
2019-01-06T23:29:47.138Z,100.00
2019-01-06T23:32:34.043Z,100.00
2019-01-06T23:35:20.730Z,100.00
2019-01-06T23:38:07.070Z,100.00
2019-01-06T23:40:54.024Z,100.00
2019-01-06T23:43:40.378Z,100.00
2019-01-06T23:46:27.168Z,100.00
2019-01-06T23:49:13.820Z,100.00
2019-01-06T23:52:00.119Z,100.00
2019-01-06T23:54:46.512Z,100.00
2019-01-06T23:57:33.119Z,100.00
